Lampasas, Texas
Current Conditions -  °F | °C
As of 10:15 PM on Wednesday 28 Jan 2015 (Local Time) from KLZZ Reporting Station
Clear Clear  
Wind Chill: 61°   Ceiling: Unl
Heat Index: 61°   Visibility: 10mi
Dew Point: 39°   Wind: 5mph
Humidity: 45%   Direction: 210°SSW
Pressure: 30.09"   Gusts: NA
Location:  31.07°N, 98.18°W
Report Text: KLZZ 290415Z AUTO 21004KT 10SM CLR 16/04 A3009 RMK AO2 T01610041
Loading
Personal Weather Stations






























Interactive Weather Map New forecast layout! Learn more

10-Day Weather Forecast

Advertisements
Track Severe Weather on mobile